Pagina principale
METAR-TAF:

METAR-TAF

Aeroporti :

Aeroporto di Portorose

Portorose, Slovenia

latitudine: 45-31N, longitudine: 013-34E, altezza: 95 m

Osservazione

Il bollettino è stato emesso 37 minuti fa, alle 11:00 UTC
Vento 5 kt da sud-est
Temperature 14°C
Umidità 67%
Pressione 1021 hPa
Visibilità 10 km o più
nessuna nube inferiore a 1500 m e nessun cumulonembo

METAR: LJPZ 261100Z 13005KT CAVOK 14/08 Q1021

Ora: 13:37 (11:37 UTC)

Previsione

Il bollettino è stato emesso 37 minuti fa, alle 11:00 UTC
Previsione valida dal 26 alle 12 UTC al 26 alle 21 UTC
Vento 5 kt da est/sud-est
Visibilità 10 km o più
Nubi sparse ad un'altezza di 7000 ft
Probabilità 30% :
Temporaneamente
dal 26 alle 12 UTC al 26 alle 14 UTC
pioggia debole

TAF: LJPZ 261100Z 2612/2621 12005KT 9999 SCT070 PROB30 TEMPO 2612/2614 -RA

Osservazioni e previsioni meteorologiche di più di 4000 aeroporti (messaggi METAR e TAF).

Le stazioni disponibili sono rappresentate dai dischi gialli e rossi sulla carta.

Puntare il mouse per vedere il nome della stazione.

Clicca sopra per visualizzare le osservazioni e previsioni meteorologiche.

Per cambiare la mappa : fare clic sui pulsanti verdi con una croce nera per ingrandire, il pulsante verde con un trattino per diminuire, o sulla freccia verde per le mappe adiacenti.


METAR-TAF: